createdAt,value
2023-11-18T00:00:47.990Z,1
2023-11-18T00:02:54.689Z,1
2023-11-18T00:04:54.605Z,1
2023-11-18T00:06:47.931Z,1
2023-11-18T00:08:47.922Z,1
2023-11-18T00:10:47.946Z,1
2023-11-18T00:12:47.922Z,1
2023-11-18T00:14:51.166Z,1
2023-11-18T00:16:47.930Z,1
2023-11-18T00:18:48.024Z,1
2023-11-18T00:20:51.350Z,1
2023-11-18T00:22:54.604Z,1
2023-11-18T00:24:48.335Z,1
2023-11-18T00:26:54.587Z,1
2023-11-18T00:28:47.922Z,1
2023-11-18T00:30:51.588Z,1
2023-11-18T00:32:48.011Z,1
2023-11-18T00:34:47.940Z,1
2023-11-18T00:36:47.888Z,1
2023-11-18T00:40:48.031Z,1
2023-11-18T00:42:54.691Z,1
2023-11-18T00:44:47.926Z,1
2023-11-18T00:46:51.305Z,1
2023-11-18T00:48:48.151Z,1
2023-11-18T00:50:47.928Z,1
2023-11-18T00:52:48.213Z,1
2023-11-18T00:54:48.285Z,1
2023-11-18T00:56:51.346Z,1
2023-11-18T00:58:48.037Z,1
2023-11-18T01:00:47.933Z,1
2023-11-18T01:02:51.731Z,1
2023-11-18T01:04:52.269Z,1
2023-11-18T01:06:47.941Z,1
2023-11-18T01:08:48.105Z,1
2023-11-18T01:10:47.886Z,1
2023-11-18T01:12:51.058Z,1
2023-11-18T01:14:48.244Z,1
2023-11-18T01:16:47.981Z,1
2023-11-18T01:18:48.655Z,1
2023-11-18T01:20:48.056Z,1
2023-11-18T01:22:51.939Z,1
2023-11-18T01:24:47.960Z,1
2023-11-18T01:26:48.382Z,1
2023-11-18T01:28:47.958Z,1
2023-11-18T01:30:48.541Z,1
2023-11-18T01:32:48.016Z,1
2023-11-18T01:34:48.366Z,1
2023-11-18T01:36:51.645Z,1
2023-11-18T01:38:48.145Z,1
2023-11-18T01:40:48.248Z,1
2023-11-18T01:42:48.036Z,1
2023-11-18T01:44:47.932Z,1
2023-11-18T01:46:47.911Z,1
2023-11-18T01:48:48.003Z,1
2023-11-18T01:50:47.891Z,1
2023-11-18T01:52:48.374Z,1
2023-11-18T01:54:51.185Z,1
2023-11-18T01:56:48.143Z,1
2023-11-18T01:58:51.624Z,1
2023-11-18T02:00:47.904Z,1
2023-11-18T02:02:48.219Z,1
2023-11-18T02:04:48.076Z,1
2023-11-18T02:06:51.398Z,1
2023-11-18T02:08:48.110Z,1
2023-11-18T02:10:48.237Z,1
2023-11-18T02:12:48.096Z,1
2023-11-18T02:14:51.309Z,1
2023-11-18T02:16:48.176Z,1
2023-11-18T02:18:48.123Z,1
2023-11-18T02:20:51.523Z,1
2023-11-18T02:24:47.907Z,1
2023-11-18T02:26:47.902Z,1
2023-11-18T02:28:48.356Z,1
2023-11-18T02:30:51.157Z,1
2023-11-18T02:32:48.013Z,1
2023-11-18T02:34:51.290Z,1
2023-11-18T02:36:48.172Z,1
2023-11-18T02:38:47.935Z,1
2023-11-18T02:40:47.909Z,1
2023-11-18T02:42:48.490Z,1
2023-11-18T02:44:48.056Z,1
2023-11-18T02:46:48.039Z,1
2023-11-18T02:48:51.772Z,1
2023-11-18T02:50:47.925Z,1
2023-11-18T02:54:48.301Z,1
2023-11-18T02:56:47.930Z,1
2023-11-18T02:58:54.759Z,1
2023-11-18T03:00:47.936Z,1
2023-11-18T03:02:47.985Z,1
2023-11-18T03:04:48.217Z,1
2023-11-18T03:06:47.885Z,1
2023-11-18T03:08:47.925Z,1
2023-11-18T03:10:51.567Z,1
2023-11-18T03:12:47.945Z,1
2023-11-18T03:14:51.996Z,1
2023-11-18T03:16:51.540Z,1
2023-11-18T03:18:48.140Z,1
2023-11-18T03:20:51.855Z,1
2023-11-18T03:22:48.084Z,1
2023-11-18T03:24:48.070Z,1
2023-11-18T03:26:51.522Z,1
2023-11-18T03:28:51.456Z,1
2023-11-18T03:30:45.220Z,1
2023-11-18T03:32:47.950Z,1
2023-11-18T03:34:48.165Z,1
2023-11-18T03:36:48.201Z,1
2023-11-18T03:40:48.323Z,1
2023-11-18T03:42:47.847Z,1
2023-11-18T03:44:48.345Z,1
2023-11-18T03:46:48.008Z,1
2023-11-18T03:48:51.508Z,1
2023-11-18T03:50:51.124Z,1
2023-11-18T03:52:51.739Z,1
2023-11-18T03:54:51.579Z,1
2023-11-18T03:56:48.087Z,1
2023-11-18T03:58:51.083Z,1
2023-11-18T04:00:47.972Z,1
2023-11-18T04:02:47.955Z,1
2023-11-18T04:06:51.174Z,1
2023-11-18T04:08:51.363Z,1
2023-11-18T04:10:48.135Z,1
2023-11-18T04:12:51.567Z,1
2023-11-18T04:14:47.926Z,1
2023-11-18T04:16:51.701Z,1
2023-11-18T04:18:47.936Z,1
2023-11-18T04:20:51.140Z,1
2023-11-18T04:22:48.026Z,1
2023-11-18T04:24:48.046Z,1
2023-11-18T04:26:48.107Z,1
2023-11-18T04:28:51.606Z,1
2023-11-18T04:30:47.987Z,1
2023-11-18T04:32:48.408Z,1
2023-11-18T04:34:48.002Z,1
2023-11-18T04:36:48.128Z,1
2023-11-18T04:38:56.608Z,1
2023-11-18T04:40:47.942Z,1
2023-11-18T04:42:48.436Z,1
2023-11-18T04:44:48.048Z,1
2023-11-18T04:48:48.092Z,1
2023-11-18T04:50:51.561Z,1
2023-11-18T04:52:47.928Z,1
2023-11-18T04:54:47.954Z,1
2023-11-18T04:56:47.997Z,1
2023-11-18T04:58:47.990Z,1
2023-11-18T05:00:47.909Z,1
2023-11-18T05:02:48.088Z,1
2023-11-18T05:04:52.267Z,1
2023-11-18T05:06:51.216Z,1
2023-11-18T05:08:47.991Z,1
2023-11-18T05:10:48.171Z,1
2023-11-18T05:12:47.870Z,1
2023-11-18T05:14:48.473Z,1
2023-11-18T05:16:51.388Z,1
2023-11-18T05:18:48.099Z,1
2023-11-18T05:20:51.368Z,1
2023-11-18T05:22:48.083Z,1
2023-11-18T05:24:47.987Z,1
2023-11-18T05:26:47.954Z,1
2023-11-18T05:28:47.990Z,1
2023-11-18T05:30:53.643Z,1
2023-11-18T05:32:47.876Z,1
2023-11-18T05:34:54.823Z,1
2023-11-18T05:36:47.895Z,1
2023-11-18T05:38:48.238Z,1
2023-11-18T05:40:51.570Z,1
2023-11-18T05:42:48.068Z,0
2023-11-18T05:44:51.553Z,0
2023-11-18T05:46:48.025Z,0
2023-11-18T05:48:48.144Z,0
2023-11-18T05:50:49.308Z,0.1
2023-11-18T05:52:47.972Z,0.1
2023-11-18T05:54:48.602Z,0.3
2023-11-18T05:56:48.011Z,0.4
2023-11-18T05:58:54.062Z,0.6
2023-11-18T06:00:47.969Z,0.8
2023-11-18T06:02:56.240Z,1.2
2023-11-18T06:04:48.177Z,1.7
2023-11-18T06:06:47.948Z,2.5
2023-11-18T06:08:47.865Z,3.7
2023-11-18T06:10:51.408Z,5.2
2023-11-18T06:12:51.273Z,7.4
2023-11-18T06:14:51.231Z,10
2023-11-18T06:16:51.620Z,12.8
2023-11-18T06:18:47.885Z,16.4
2023-11-18T06:20:47.860Z,20.1
2023-11-18T06:22:51.240Z,24.5
2023-11-18T06:24:51.429Z,30
2023-11-18T06:26:48.176Z,34.8
2023-11-18T06:28:54.725Z,44.7
2023-11-18T06:30:47.973Z,54.6
2023-11-18T06:32:48.088Z,70.1
2023-11-18T06:34:48.053Z,90
2023-11-18T06:36:47.995Z,109.9
2023-11-18T06:38:48.177Z,121.5
2023-11-18T06:40:47.994Z,127.7
2023-11-18T06:42:48.329Z,134.3
2023-11-18T06:44:51.561Z,141.2
2023-11-18T06:46:48.036Z,148.4
2023-11-18T06:48:51.132Z,156
2023-11-18T06:50:51.252Z,156
2023-11-18T06:52:51.245Z,172.4
2023-11-18T06:54:47.961Z,181.3
2023-11-18T06:56:48.058Z,210.6
2023-11-18T06:58:51.266Z,232.8
2023-11-18T07:00:47.991Z,257.2
2023-11-18T07:02:54.724Z,270.4
2023-11-18T07:04:54.773Z,298.9
2023-11-18T07:06:48.263Z,314.2
2023-11-18T07:08:47.961Z,330.3
2023-11-18T07:10:48.005Z,347.2
2023-11-18T07:12:51.837Z,365
2023-11-18T07:14:48.080Z,383.8
2023-11-18T07:16:48.061Z,403.4
2023-11-18T07:18:47.865Z,403.4
2023-11-18T07:20:49.272Z,424.1
2023-11-18T07:22:48.127Z,468.7
2023-11-18T07:24:51.665Z,492.7
2023-11-18T07:26:47.945Z,518
2023-11-18T07:28:52.110Z,544.6
2023-11-18T07:30:47.853Z,572.5
2023-11-18T07:32:48.074Z,572.5
2023-11-18T07:34:49.057Z,572.5
2023-11-18T07:36:48.068Z,601.8
2023-11-18T07:40:47.915Z,665.1
2023-11-18T07:42:48.091Z,735.1
2023-11-18T07:44:47.911Z,772.8
2023-11-18T07:46:48.534Z,812.4
2023-11-18T07:50:51.630Z,943.9
2023-11-18T07:52:54.700Z,943.9
2023-11-18T07:54:49.167Z,1152.9
2023-11-18T07:56:47.986Z,1212
2023-11-18T07:58:48.107Z,1212
2023-11-18T08:00:47.984Z,1339.4
2023-11-18T08:02:47.949Z,1408.1
2023-11-18T08:04:47.991Z,1339.4
2023-11-18T08:06:48.684Z,1339.4
2023-11-18T08:08:51.508Z,1274.1
2023-11-18T08:10:51.549Z,1212
2023-11-18T08:12:51.468Z,1212
2023-11-18T08:14:51.493Z,1339.4
2023-11-18T08:16:47.953Z,1339.4
2023-11-18T08:18:48.726Z,1339.4
2023-11-18T08:20:47.994Z,1339.4
2023-11-18T08:22:48.188Z,1339.4
2023-11-18T08:24:50.368Z,1480.3
2023-11-18T08:26:47.922Z,1719.9
2023-11-18T08:28:48.055Z,2100.6
2023-11-18T08:30:47.984Z,2440.6
2023-11-18T08:32:49.334Z,2697.3
2023-11-18T08:34:48.013Z,2697.3
2023-11-18T08:36:48.136Z,2835.6
2023-11-18T08:38:51.264Z,2835.6
2023-11-18T08:40:48.049Z,2835.6
2023-11-18T08:42:48.008Z,2835.6
2023-11-18T08:44:47.998Z,2981
2023-11-18T08:46:48.577Z,2981
2023-11-18T08:48:48.267Z,3133.8
2023-11-18T08:50:48.702Z,3294.5
2023-11-18T08:52:48.270Z,3133.8
2023-11-18T08:54:48.614Z,3133.8
2023-11-18T08:58:48.003Z,3463.4
2023-11-18T09:00:54.793Z,4023.9
2023-11-18T09:02:52.469Z,4914.8
2023-11-18T09:04:48.569Z,5166.8
2023-11-18T09:06:51.419Z,5710.1
2023-11-18T09:08:47.973Z,4914.8
2023-11-18T09:10:48.011Z,4447.1
2023-11-18T09:12:48.085Z,4230.2
2023-11-18T09:14:54.727Z,3641
2023-11-18T09:16:51.567Z,3463.4
2023-11-18T09:18:51.587Z,3463.4
2023-11-18T09:20:51.187Z,3133.8
2023-11-18T09:22:48.075Z,2835.6
2023-11-18T09:24:51.604Z,3133.8
2023-11-18T09:26:51.552Z,3641
2023-11-18T09:28:48.237Z,4023.9
2023-11-18T09:30:51.192Z,4023.9
2023-11-18T09:32:48.167Z,3827.6
2023-11-18T09:34:54.634Z,4230.2
2023-11-18T09:36:48.144Z,5166.8
2023-11-18T09:38:49.213Z,5166.8
2023-11-18T09:40:48.511Z,6634.2
2023-11-18T09:42:51.248Z,31257
2023-11-18T09:44:48.580Z,9897.1
2023-11-18T09:46:53.437Z,24343
2023-11-18T09:48:48.012Z,42192.6
2023-11-18T09:50:48.143Z,40134.8
2023-11-18T09:52:51.370Z,13359.7
2023-11-18T09:54:48.121Z,26903.2
2023-11-18T09:56:48.257Z,49020.8
2023-11-18T09:58:48.660Z,17154.2
2023-11-18T10:00:51.546Z,54176.4
2023-11-18T10:02:52.066Z,49020.8
2023-11-18T10:04:47.992Z,14044.7
2023-11-18T10:06:48.057Z,42192.6
2023-11-18T10:08:51.429Z,42192.6
2023-11-18T10:10:48.059Z,42192.6
2023-11-18T10:12:49.004Z,49020.8
2023-11-18T10:14:48.031Z,42192.6
2023-11-18T10:16:50.341Z,29732.6
2023-11-18T10:18:48.166Z,36315.5
2023-11-18T10:20:53.039Z,32859.6
2023-11-18T10:22:48.070Z,32859.6
2023-11-18T10:24:48.023Z,51534.2
2023-11-18T10:28:48.293Z,56954
2023-11-18T10:30:51.141Z,69563.8
2023-11-18T10:32:48.030Z,62944
2023-11-18T10:34:51.277Z,46630
2023-11-18T10:36:47.945Z,49020.8
2023-11-18T10:38:47.988Z,13359.7
2023-11-18T10:40:48.010Z,62944
2023-11-18T10:42:48.098Z,62944
2023-11-18T10:44:48.334Z,69563.8
2023-11-18T10:46:47.997Z,69563.8
2023-11-18T10:48:48.030Z,69563.8
2023-11-18T10:50:48.016Z,73130.4
2023-11-18T10:52:47.987Z,49020.8
2023-11-18T10:54:48.988Z,73130.4
2023-11-18T10:56:48.127Z,76879.9
2023-11-18T10:58:48.133Z,76879.9
2023-11-18T11:00:48.687Z,73130.4
2023-11-18T11:02:48.240Z,73130.4
2023-11-18T11:04:48.027Z,73130.4
2023-11-18T11:06:48.031Z,22026.5
2023-11-18T11:08:48.144Z,34544.4
2023-11-18T11:10:47.989Z,44355.9
2023-11-18T11:12:48.002Z,13359.7
2023-11-18T11:14:51.170Z,16317.6
2023-11-18T11:18:47.969Z,10404.6
2023-11-18T11:20:48.081Z,10938
2023-11-18T11:22:48.113Z,6974.4
2023-11-18T11:26:48.207Z,15521.8
2023-11-18T11:28:48.039Z,32859.6
2023-11-18T11:30:48.294Z,31257
2023-11-18T11:32:48.108Z,25591.1
2023-11-18T11:34:47.951Z,24343
2023-11-18T11:36:48.603Z,23155.8
2023-11-18T11:38:51.445Z,25591.1
2023-11-18T11:40:51.282Z,22026.5
2023-11-18T11:42:51.224Z,20952.2
2023-11-18T11:44:51.431Z,18033.7
2023-11-18T11:46:48.419Z,16317.6
2023-11-18T11:48:48.049Z,17154.2
2023-11-18T11:50:47.985Z,14044.7
2023-11-18T11:52:51.677Z,8103.1
2023-11-18T11:54:48.091Z,10404.6
2023-11-18T11:56:48.037Z,10938
2023-11-18T11:58:51.803Z,10404.6
2023-11-18T12:00:48.159Z,10938
2023-11-18T12:02:48.015Z,7332
2023-11-18T12:04:51.140Z,9414.4
2023-11-18T12:06:48.532Z,11498.8
2023-11-18T12:08:48.415Z,10938
2023-11-18T12:10:54.788Z,9414.4
2023-11-18T12:12:48.021Z,10938
2023-11-18T12:14:48.301Z,10938
2023-11-18T12:16:48.028Z,12088.4
2023-11-18T12:18:52.791Z,12708.2
2023-11-18T12:20:48.106Z,11498.8
2023-11-18T12:22:48.000Z,11498.8
2023-11-18T12:24:48.174Z,10404.6
2023-11-18T12:26:51.631Z,9414.4
2023-11-18T12:28:54.722Z,8955.3
2023-11-18T12:30:50.115Z,8103.1
2023-11-18T12:32:48.045Z,7332
2023-11-18T12:34:48.218Z,6634.2
2023-11-18T12:36:51.678Z,6310.7
2023-11-18T12:38:47.994Z,6310.7
2023-11-18T12:40:48.410Z,6310.7
2023-11-18T12:42:48.024Z,6310.7
2023-11-18T12:44:48.002Z,6634.2
2023-11-18T12:46:48.139Z,7332
2023-11-18T12:48:48.141Z,6974.4
2023-11-18T12:50:51.746Z,7332
2023-11-18T12:52:51.242Z,8103.1
2023-11-18T12:54:48.147Z,6974.4
2023-11-18T12:56:51.631Z,5710.1
2023-11-18T12:58:48.070Z,5431.7
2023-11-18T13:00:51.244Z,5166.8
2023-11-18T13:02:48.377Z,5431.7
2023-11-18T13:04:50.688Z,5166.8
2023-11-18T13:06:51.737Z,4914.8
2023-11-18T13:08:48.076Z,4675.1
2023-11-18T13:10:48.198Z,4675.1
2023-11-18T13:12:48.648Z,4447.1
2023-11-18T13:14:49.686Z,4675.1
2023-11-18T13:16:51.553Z,4230.2
2023-11-18T13:18:48.437Z,4230.2
2023-11-18T13:20:48.053Z,4230.2
2023-11-18T13:22:51.571Z,5166.8
2023-11-18T13:24:51.436Z,5166.8
2023-11-18T13:28:48.265Z,5710.1
2023-11-18T13:32:48.064Z,12708.2
2023-11-18T13:34:48.288Z,16317.6
2023-11-18T13:36:51.299Z,23155.8
2023-11-18T13:38:51.403Z,29732.6
2023-11-18T13:40:48.528Z,31257
2023-11-18T13:42:51.291Z,31257
2023-11-18T13:46:48.416Z,28282.5
2023-11-18T13:48:48.027Z,25591.1
2023-11-18T13:50:48.605Z,16317.6
2023-11-18T13:52:51.521Z,14764.8
2023-11-18T13:54:51.579Z,10938
2023-11-18T13:56:54.802Z,7332
2023-11-18T13:58:48.032Z,6310.7
2023-11-18T14:00:48.172Z,6002.9
2023-11-18T14:02:48.518Z,5431.7
2023-11-18T14:04:48.286Z,4675.1
2023-11-18T14:06:55.227Z,4023.9
2023-11-18T14:08:48.197Z,4023.9
2023-11-18T14:10:52.266Z,3641
2023-11-18T14:12:51.953Z,3294.5
2023-11-18T14:14:48.242Z,2697.3
2023-11-18T14:16:48.201Z,2100.6
2023-11-18T14:18:48.470Z,1719.9
2023-11-18T14:22:48.406Z,1274.1
2023-11-18T14:24:48.368Z,1043.1
2023-11-18T14:26:51.770Z,943.9
2023-11-18T14:28:51.637Z,854.1
2023-11-18T14:30:48.274Z,699.2
2023-11-18T14:32:48.249Z,601.8
2023-11-18T14:34:48.031Z,518
2023-11-18T14:36:48.053Z,468.7
2023-11-18T14:38:52.850Z,445.9
2023-11-18T14:40:48.739Z,445.9
2023-11-18T14:42:51.403Z,403.4
2023-11-18T14:44:48.032Z,365
2023-11-18T14:48:48.236Z,365
2023-11-18T14:50:48.253Z,365
2023-11-18T14:52:48.056Z,365
2023-11-18T14:54:48.077Z,330.3
2023-11-18T14:56:48.143Z,298.9
2023-11-18T14:58:48.863Z,270.4
2023-11-18T15:00:54.653Z,244.7
2023-11-18T15:02:52.069Z,221.4
2023-11-18T15:04:48.088Z,200.3
2023-11-18T15:06:54.845Z,172.4
2023-11-18T15:08:48.111Z,148.4
2023-11-18T15:10:50.246Z,121.5
2023-11-18T15:12:48.094Z,99.5
2023-11-18T15:14:48.141Z,81.5
2023-11-18T15:16:54.945Z,70.1
2023-11-18T15:18:48.180Z,60.3
2023-11-18T15:20:48.681Z,49.4
2023-11-18T15:22:48.136Z,40.4
2023-11-18T15:24:48.706Z,31.5
2023-11-18T15:26:52.281Z,25.8
2023-11-18T15:28:54.671Z,23.3
2023-11-18T15:30:48.344Z,22.2
2023-11-18T15:32:48.757Z,21.1
2023-11-18T15:34:48.739Z,20.1
2023-11-18T15:36:50.309Z,17.3
2023-11-18T15:38:48.187Z,14.2
2023-11-18T15:40:54.804Z,11.6
2023-11-18T15:42:48.093Z,9
2023-11-18T15:44:48.083Z,6.7
2023-11-18T15:46:48.118Z,4.7
2023-11-18T15:48:49.300Z,3.5
2023-11-18T15:50:48.230Z,2.6
2023-11-18T15:52:48.068Z,1.9
2023-11-18T15:54:48.103Z,1.3
2023-11-18T15:56:48.176Z,0.9
2023-11-18T15:58:49.623Z,0.6
2023-11-18T16:00:48.277Z,0.4
2023-11-18T16:02:48.298Z,0.3
2023-11-18T16:04:48.172Z,0.2
2023-11-18T16:06:56.113Z,0.1
2023-11-18T16:08:48.096Z,0
2023-11-18T16:10:48.232Z,0
2023-11-18T16:12:49.619Z,0
2023-11-18T16:14:51.414Z,0
2023-11-18T16:16:48.082Z,0
2023-11-18T16:18:48.080Z,1
2023-11-18T16:20:48.099Z,1
2023-11-18T16:22:48.793Z,1
2023-11-18T16:24:48.131Z,1
2023-11-18T16:26:48.534Z,1
2023-11-18T16:28:48.133Z,1
2023-11-18T16:30:48.091Z,1
2023-11-18T16:32:50.116Z,1
2023-11-18T16:34:48.063Z,1
2023-11-18T16:36:49.637Z,1
2023-11-18T16:38:48.452Z,1
2023-11-18T16:40:51.781Z,1
2023-11-18T16:42:48.082Z,1
2023-11-18T16:44:51.537Z,1
2023-11-18T16:46:54.722Z,1
2023-11-18T16:48:48.063Z,1
2023-11-18T16:50:51.414Z,1
2023-11-18T16:52:48.156Z,1
2023-11-18T16:54:48.213Z,1
2023-11-18T16:56:48.073Z,0.1
2023-11-18T16:58:51.504Z,0.1
2023-11-18T17:00:48.092Z,0.1
2023-11-18T17:02:51.376Z,0.1
2023-11-18T17:04:51.672Z,0.1
2023-11-18T17:06:51.210Z,0.1
2023-11-18T17:08:48.127Z,0.1
2023-11-18T17:10:48.072Z,0.1
2023-11-18T17:12:48.227Z,0.1
2023-11-18T17:14:48.095Z,0.1
2023-11-18T17:16:48.180Z,0.1
2023-11-18T17:18:52.429Z,0.1
2023-11-18T17:20:48.176Z,0.1
2023-11-18T17:22:48.166Z,1
2023-11-18T17:24:49.314Z,1
2023-11-18T17:26:48.238Z,1
2023-11-18T17:28:59.461Z,1
2023-11-18T17:32:52.278Z,1
2023-11-18T17:34:52.356Z,1
2023-11-18T17:36:52.339Z,1
2023-11-18T17:38:52.510Z,1
2023-11-18T17:40:52.252Z,1
2023-11-18T17:42:51.632Z,1
2023-11-18T17:44:52.468Z,1
2023-11-18T17:46:52.571Z,1
2023-11-18T17:48:52.483Z,1
2023-11-18T17:50:55.706Z,1
2023-11-18T17:52:52.353Z,1
2023-11-18T17:54:52.038Z,1
2023-11-18T17:56:52.321Z,1
2023-11-18T17:58:52.175Z,1
2023-11-18T18:00:52.196Z,1
2023-11-18T18:02:55.717Z,1
2023-11-18T18:04:52.182Z,1
2023-11-18T18:06:52.187Z,1
2023-11-18T18:08:52.542Z,1
2023-11-18T18:10:55.774Z,1
2023-11-18T18:12:55.563Z,1
2023-11-18T18:14:52.193Z,1
2023-11-18T18:16:52.583Z,1
2023-11-18T18:18:52.272Z,1
2023-11-18T18:20:52.075Z,1
2023-11-18T18:22:52.209Z,1
2023-11-18T18:24:52.357Z,1
2023-11-18T18:26:52.421Z,1
2023-11-18T18:28:52.461Z,1
2023-11-18T18:30:52.302Z,1
2023-11-18T18:32:55.999Z,1
2023-11-18T18:34:52.474Z,1
2023-11-18T18:36:55.552Z,1
2023-11-18T18:38:52.169Z,1
2023-11-18T18:40:52.234Z,1
2023-11-18T18:42:55.659Z,1
2023-11-18T18:44:55.428Z,1
2023-11-18T18:46:52.475Z,1
2023-11-18T18:48:52.432Z,1
2023-11-18T18:50:52.363Z,1
2023-11-18T18:52:52.543Z,1
2023-11-18T18:54:52.068Z,1
2023-11-18T18:56:55.445Z,1
2023-11-18T18:58:52.139Z,1
2023-11-18T19:00:52.502Z,1
2023-11-18T19:02:52.538Z,1
2023-11-18T19:04:55.815Z,1
2023-11-18T19:06:58.671Z,1
2023-11-18T19:08:55.471Z,1
2023-11-18T19:10:52.048Z,1
2023-11-18T19:12:55.280Z,1
2023-11-18T19:14:52.032Z,1
2023-11-18T19:16:58.932Z,1
2023-11-18T19:18:52.437Z,1
2023-11-18T19:20:52.484Z,1
2023-11-18T19:22:58.788Z,1
2023-11-18T19:24:55.283Z,1
2023-11-18T19:26:52.174Z,1
2023-11-18T19:28:58.822Z,1
2023-11-18T19:30:52.477Z,1
2023-11-18T19:32:52.299Z,1
2023-11-18T19:34:52.127Z,1
2023-11-18T19:38:52.383Z,1
2023-11-18T19:40:58.832Z,1
2023-11-18T19:42:52.476Z,1
2023-11-18T19:44:52.496Z,1
2023-11-18T19:46:52.150Z,1
2023-11-18T19:48:52.502Z,1
2023-11-18T19:50:55.578Z,1
2023-11-18T19:52:55.303Z,1
2023-11-18T19:54:52.029Z,1
2023-11-18T19:56:52.170Z,1
2023-11-18T19:58:52.179Z,1
2023-11-18T20:00:52.922Z,1
2023-11-18T20:02:52.615Z,1
2023-11-18T20:04:52.270Z,1
2023-11-18T20:06:52.325Z,1
2023-11-18T20:08:52.484Z,1
2023-11-18T20:10:58.729Z,1
2023-11-18T20:12:52.144Z,1
2023-11-18T20:14:52.279Z,1
2023-11-18T20:16:52.023Z,1
2023-11-18T20:18:58.777Z,1
2023-11-18T20:20:52.059Z,1
2023-11-18T20:24:52.550Z,1
2023-11-18T20:26:52.512Z,1
2023-11-18T20:28:52.338Z,1
2023-11-18T20:30:52.073Z,1
2023-11-18T20:32:55.679Z,1
2023-11-18T20:34:52.519Z,1
2023-11-18T20:36:58.837Z,1
2023-11-18T20:38:52.018Z,1
2023-11-18T20:40:52.210Z,1
2023-11-18T20:42:52.263Z,1
2023-11-18T20:44:52.102Z,1
2023-11-18T20:46:52.162Z,1
2023-11-18T20:48:52.674Z,1
2023-11-18T20:50:52.451Z,1
2023-11-18T20:52:55.657Z,1
2023-11-18T20:54:52.171Z,1
2023-11-18T20:56:55.517Z,1
2023-11-18T20:58:52.495Z,1
2023-11-18T21:00:52.516Z,1
2023-11-18T21:02:52.469Z,1
2023-11-18T21:04:52.592Z,1
2023-11-18T21:06:52.264Z,1
2023-11-18T21:08:52.227Z,1
2023-11-18T21:10:52.198Z,1
2023-11-18T21:12:55.693Z,1
2023-11-18T21:14:52.577Z,1
2023-11-18T21:16:52.253Z,1
2023-11-18T21:18:49.897Z,1
2023-11-18T21:20:55.767Z,1
2023-11-18T21:22:52.509Z,1
2023-11-18T21:24:52.287Z,1
2023-11-18T21:26:52.381Z,1
2023-11-18T21:28:52.356Z,1
2023-11-18T21:30:52.185Z,1
2023-11-18T21:32:52.730Z,1
2023-11-18T21:34:52.312Z,1
2023-11-18T21:36:52.509Z,1
2023-11-18T21:38:54.119Z,1
2023-11-18T21:40:52.455Z,1
2023-11-18T21:42:52.154Z,1
2023-11-18T21:44:52.232Z,1
2023-11-18T21:46:55.659Z,1
2023-11-18T21:48:52.525Z,1
2023-11-18T21:50:52.149Z,1
2023-11-18T21:52:55.457Z,1
2023-11-18T21:54:55.428Z,1
2023-11-18T21:56:52.534Z,1
2023-11-18T21:58:52.243Z,1
2023-11-18T22:00:52.351Z,1
2023-11-18T22:02:52.212Z,1
2023-11-18T22:04:52.174Z,1
2023-11-18T22:08:52.164Z,1
2023-11-18T22:10:52.401Z,1
2023-11-18T22:12:53.443Z,1
2023-11-18T22:14:52.167Z,1
2023-11-18T22:16:52.647Z,1
2023-11-18T22:18:49.303Z,1
2023-11-18T22:20:52.217Z,1
2023-11-18T22:22:52.361Z,1
2023-11-18T22:24:55.864Z,1
2023-11-18T22:26:55.666Z,1
2023-11-18T22:28:55.617Z,1
2023-11-18T22:30:52.095Z,1
2023-11-18T22:32:52.654Z,1
2023-11-18T22:34:52.394Z,1
2023-11-18T22:36:55.736Z,1
2023-11-18T22:38:52.255Z,1
2023-11-18T22:40:52.685Z,1
2023-11-18T22:42:53.140Z,1
2023-11-18T22:44:52.625Z,1
2023-11-18T22:46:52.342Z,1
2023-11-18T22:48:52.681Z,1
2023-11-18T22:50:52.690Z,1
2023-11-18T22:52:52.137Z,1
2023-11-18T22:54:55.848Z,1
2023-11-18T22:56:52.452Z,1
2023-11-18T22:58:52.577Z,1
2023-11-18T23:00:52.757Z,1
2023-11-18T23:02:52.572Z,1
2023-11-18T23:04:58.690Z,1
2023-11-18T23:06:52.036Z,1
2023-11-18T23:08:52.195Z,1
2023-11-18T23:10:52.399Z,1
2023-11-18T23:12:58.951Z,1
2023-11-18T23:14:52.583Z,1
2023-11-18T23:16:55.705Z,1
2023-11-18T23:18:52.067Z,1
2023-11-18T23:20:52.169Z,1
2023-11-18T23:22:52.131Z,1
2023-11-18T23:24:52.686Z,1
2023-11-18T23:26:55.454Z,1
2023-11-18T23:28:52.090Z,1
2023-11-18T23:30:52.085Z,1
2023-11-18T23:32:52.257Z,1
2023-11-18T23:34:52.435Z,1
2023-11-18T23:36:55.841Z,1
2023-11-18T23:40:52.280Z,1
2023-11-18T23:42:52.210Z,1
2023-11-18T23:46:52.232Z,1
2023-11-18T23:48:52.361Z,1
2023-11-18T23:50:52.098Z,1
2023-11-18T23:52:52.290Z,1
2023-11-18T23:54:52.135Z,1
2023-11-18T23:56:52.295Z,1
2023-11-18T23:58:52.370Z,1
